createdAt,value
2022-12-23T00:00:02.509Z,92.08
2022-12-23T00:01:04.852Z,92.09
2022-12-23T00:01:38.373Z,92.21
2022-12-23T00:02:11.996Z,92.01
2022-12-23T00:02:46.267Z,92.11
2022-12-23T00:03:19.950Z,92.21
2022-12-23T00:03:56.800Z,92.09
2022-12-23T00:04:30.451Z,91.93
2022-12-23T00:05:05.056Z,91.96
2022-12-23T00:05:39.507Z,91.75
2022-12-23T00:06:15.439Z,91.65
2022-12-23T00:06:49.017Z,91.76
2022-12-23T00:07:22.517Z,91.72
2022-12-23T00:07:56.030Z,91.78
2022-12-23T00:08:29.526Z,91.66
2022-12-23T00:09:02.968Z,91.63
2022-12-23T00:09:36.425Z,91.65
2022-12-23T00:10:10.243Z,91.82
2022-12-23T00:10:43.749Z,91.53
2022-12-23T00:11:20.344Z,91.70
2022-12-23T00:12:12.370Z,91.68
2022-12-23T00:13:04.044Z,91.90
2022-12-23T00:13:56.069Z,91.82
2022-12-23T00:14:48.028Z,91.59
2022-12-23T00:15:21.435Z,91.73
2022-12-23T00:16:08.694Z,91.59
2022-12-23T00:16:42.298Z,91.82
2022-12-23T00:17:22.628Z,91.51
2022-12-23T00:17:56.797Z,91.69
2022-12-23T00:18:32.928Z,91.52
2022-12-23T00:19:06.445Z,91.42
2022-12-23T00:19:39.979Z,91.40
2022-12-23T00:20:16.432Z,91.19
2022-12-23T00:20:50.127Z,91.29
2022-12-23T00:21:23.695Z,91.39
2022-12-23T00:21:57.315Z,91.17
2022-12-23T00:22:49.331Z,91.20
2022-12-23T00:23:22.707Z,91.31
2022-12-23T00:23:56.051Z,91.48
2022-12-23T00:24:29.461Z,91.77
2022-12-23T00:25:02.872Z,91.72
2022-12-23T00:25:42.473Z,91.70
2022-12-23T00:26:24.572Z,91.48
2022-12-23T00:26:58.118Z,91.62
2022-12-23T00:27:37.194Z,91.15
2022-12-23T00:28:19.882Z,91.27
2022-12-23T00:28:56.726Z,91.12
2022-12-23T00:29:30.292Z,91.07
2022-12-23T00:30:05.555Z,91.13
2022-12-23T00:30:47.021Z,90.93
2022-12-23T00:31:21.424Z,90.78
2022-12-23T00:31:54.940Z,90.92
2022-12-23T00:32:28.369Z,90.99
2022-12-23T00:33:01.825Z,90.88
2022-12-23T00:33:44.313Z,91.08
2022-12-23T00:34:17.719Z,90.87
2022-12-23T00:34:51.233Z,91.02
2022-12-23T00:35:24.578Z,91.18
2022-12-23T00:35:58.644Z,91.19
2022-12-23T00:36:33.840Z,91.12
2022-12-23T00:37:07.423Z,90.96
2022-12-23T00:37:41.064Z,90.88
2022-12-23T00:38:38.985Z,90.97
2022-12-23T00:39:31.824Z,90.95
2022-12-23T00:40:24.668Z,91.02
2022-12-23T00:41:16.817Z,91.12
2022-12-23T00:42:08.840Z,91.07
2022-12-23T00:42:54.455Z,91.21
2022-12-23T00:43:27.993Z,91.52
2022-12-23T00:44:02.457Z,91.19
2022-12-23T00:44:35.762Z,91.23
2022-12-23T00:45:16.229Z,91.11
2022-12-23T00:45:49.867Z,91.14
2022-12-23T00:46:23.475Z,91.20
2022-12-23T00:46:57.067Z,91.30
2022-12-23T00:47:49.250Z,91.33
2022-12-23T00:48:41.181Z,91.17
2022-12-23T00:49:34.272Z,91.27
2022-12-23T00:50:08.440Z,91.23
2022-12-23T00:50:42.038Z,91.23
2022-12-23T00:51:15.419Z,91.27
2022-12-23T00:51:48.905Z,91.12
2022-12-23T00:52:22.274Z,91.29
2022-12-23T00:52:56.066Z,91.30
2022-12-23T00:53:30.429Z,91.28
2022-12-23T00:54:04.265Z,91.53
2022-12-23T00:54:37.919Z,91.72
2022-12-23T00:55:11.391Z,91.64
2022-12-23T00:55:47.968Z,91.63
2022-12-23T00:56:21.465Z,91.65
2022-12-23T00:56:55.289Z,91.64
2022-12-23T00:57:28.869Z,91.57
2022-12-23T00:58:02.375Z,91.62
2022-12-23T00:58:35.967Z,91.75
2022-12-23T00:59:09.715Z,91.71
2022-12-23T00:59:43.190Z,91.51
2022-12-23T01:00:17.042Z,91.54
2022-12-23T01:01:09.130Z,91.56
2022-12-23T01:02:01.705Z,91.68
2022-12-23T01:02:53.817Z,91.74
2022-12-23T01:03:46.525Z,91.74
2022-12-23T01:04:39.451Z,92.22
2022-12-23T01:05:31.847Z,92.20
2022-12-23T01:06:05.461Z,92.10
2022-12-23T01:06:38.960Z,92.19
2022-12-23T01:07:12.606Z,92.21
2022-12-23T01:07:46.240Z,92.11
2022-12-23T01:08:19.964Z,92.30
2022-12-23T01:08:53.447Z,92.23
2022-12-23T01:09:27.405Z,92.19
2022-12-23T01:10:00.850Z,91.92
2022-12-23T01:10:42.561Z,91.84
2022-12-23T01:11:19.791Z,91.84
2022-12-23T01:11:54.981Z,92.03
2022-12-23T01:12:28.544Z,92.28
2022-12-23T01:13:02.068Z,92.47
2022-12-23T01:13:36.702Z,92.46
2022-12-23T01:14:10.227Z,92.43
2022-12-23T01:14:43.753Z,92.14
2022-12-23T01:15:17.543Z,92.07
2022-12-23T01:15:51.085Z,92.18
2022-12-23T01:16:24.786Z,92.09
2022-12-23T01:16:58.528Z,92.17
2022-12-23T01:17:32.024Z,92.21
2022-12-23T01:18:08.377Z,91.81
2022-12-23T01:18:42.221Z,92.30
2022-12-23T01:19:16.028Z,92.12
2022-12-23T01:19:49.447Z,91.85
2022-12-23T01:20:23.324Z,92.03
2022-12-23T01:21:02.582Z,92.03
2022-12-23T01:21:36.063Z,92.00
2022-12-23T01:22:09.724Z,92.26
2022-12-23T01:22:43.161Z,92.11
2022-12-23T01:23:16.627Z,92.10
2022-12-23T01:23:50.066Z,92.14
2022-12-23T01:24:24.192Z,92.22
2022-12-23T01:24:57.581Z,92.17
2022-12-23T01:25:32.387Z,92.25
2022-12-23T01:26:07.643Z,92.21
2022-12-23T01:26:41.274Z,92.13
2022-12-23T01:27:14.761Z,92.10
2022-12-23T01:27:48.223Z,92.19
2022-12-23T01:28:21.706Z,92.20
2022-12-23T01:28:56.939Z,92.36
2022-12-23T01:29:30.355Z,92.44
2022-12-23T01:30:04.265Z,92.28
2022-12-23T01:30:38.445Z,92.21
2022-12-23T01:31:12.107Z,92.32
2022-12-23T01:31:45.585Z,92.42
2022-12-23T01:32:19.286Z,92.38
2022-12-23T01:32:52.857Z,92.37
2022-12-23T01:33:26.285Z,92.34
2022-12-23T01:33:59.877Z,92.30
2022-12-23T01:34:36.980Z,92.43
2022-12-23T01:35:11.175Z,92.34
2022-12-23T01:35:44.735Z,92.41
2022-12-23T01:36:18.511Z,92.37
2022-12-23T01:36:51.987Z,92.20
2022-12-23T01:37:25.426Z,92.31
2022-12-23T01:37:58.890Z,92.42
2022-12-23T01:38:32.752Z,92.31
2022-12-23T01:39:06.136Z,92.41
2022-12-23T01:39:39.630Z,92.34
2022-12-23T01:40:13.198Z,92.28
2022-12-23T01:40:46.646Z,92.17
2022-12-23T01:41:51.281Z,92.29
2022-12-23T01:42:43.784Z,92.49
2022-12-23T01:43:21.314Z,92.33
2022-12-23T01:43:54.893Z,92.41
2022-12-23T01:44:50.873Z,92.42
2022-12-23T01:45:29.274Z,92.35
2022-12-23T01:46:03.056Z,92.49
2022-12-23T01:46:36.450Z,92.51
2022-12-23T01:47:14.651Z,92.52
2022-12-23T01:48:00.936Z,92.67
2022-12-23T01:48:34.418Z,92.40
2022-12-23T01:49:08.082Z,92.58
2022-12-23T01:49:43.072Z,92.71
2022-12-23T01:50:31.748Z,92.59
2022-12-23T01:51:25.015Z,92.52
2022-12-23T01:51:58.525Z,92.54
2022-12-23T01:52:39.169Z,92.63
2022-12-23T01:53:18.286Z,92.51
2022-12-23T01:53:58.221Z,92.56
2022-12-23T01:54:32.190Z,92.45
2022-12-23T01:55:06.297Z,92.36
2022-12-23T01:56:08.281Z,92.44
2022-12-23T01:56:42.203Z,92.52
2022-12-23T01:57:15.934Z,92.66
2022-12-23T01:57:49.961Z,92.55
2022-12-23T01:58:27.732Z,92.61
2022-12-23T01:59:06.973Z,92.52
2022-12-23T02:00:00.093Z,92.39
2022-12-23T02:00:52.224Z,92.45
2022-12-23T02:01:44.870Z,92.42
2022-12-23T02:02:37.182Z,92.72
2022-12-23T02:03:29.361Z,92.36
2022-12-23T02:04:10.004Z,92.47
2022-12-23T02:04:43.898Z,92.20
2022-12-23T02:05:17.804Z,92.37
2022-12-23T02:05:53.426Z,92.46
2022-12-23T02:06:49.761Z,92.54
2022-12-23T02:07:42.178Z,92.55
2022-12-23T02:08:35.920Z,92.70
2022-12-23T02:09:27.522Z,92.50
2022-12-23T02:10:00.966Z,92.81
2022-12-23T02:10:55.233Z,92.81
2022-12-23T02:11:43.286Z,92.54
2022-12-23T02:12:44.389Z,92.71
2022-12-23T02:13:35.199Z,93.21
2022-12-23T02:14:55.469Z,93.47
2022-12-23T02:15:57.451Z,93.10
2022-12-23T02:16:38.927Z,92.98
2022-12-23T02:17:41.108Z,93.18
2022-12-23T02:18:38.979Z,92.93
2022-12-23T02:19:24.487Z,93.03
2022-12-23T02:20:00.398Z,92.69
2022-12-23T02:20:39.679Z,92.85
2022-12-23T02:21:33.651Z,93.22
2022-12-23T02:22:39.397Z,93.38
2022-12-23T02:23:50.865Z,93.04
2022-12-23T02:25:15.629Z,93.07
2022-12-23T02:25:49.027Z,93.15
2022-12-23T02:26:49.933Z,93.08
2022-12-23T02:27:42.561Z,93.52
2022-12-23T02:28:21.671Z,93.54
2022-12-23T02:29:31.940Z,93.58
2022-12-23T02:30:23.073Z,93.58
2022-12-23T02:31:10.764Z,93.59
2022-12-23T02:32:11.325Z,93.59
2022-12-23T02:33:07.970Z,93.70
2022-12-23T02:33:59.738Z,93.66
2022-12-23T02:34:40.483Z,93.60
2022-12-23T02:35:31.564Z,93.48
2022-12-23T02:36:23.675Z,93.21
2022-12-23T02:37:09.078Z,93.45
2022-12-23T02:38:04.601Z,93.31
2022-12-23T02:39:05.975Z,93.40
2022-12-23T02:39:50.862Z,93.47
2022-12-23T02:40:40.843Z,93.42
2022-12-23T02:41:23.689Z,93.37
2022-12-23T02:42:04.304Z,93.34
2022-12-23T02:43:00.824Z,93.15
2022-12-23T02:43:42.973Z,93.47
2022-12-23T02:44:30.471Z,93.31
2022-12-23T02:45:10.602Z,93.61
2022-12-23T02:45:57.264Z,93.47
2022-12-23T02:46:41.012Z,93.62
2022-12-23T02:47:22.974Z,93.68
2022-12-23T02:48:27.781Z,93.45
2022-12-23T02:50:45.486Z,93.65
2022-12-23T02:51:24.989Z,93.58
2022-12-23T02:52:01.804Z,93.39
2022-12-23T02:52:38.196Z,93.59
2022-12-23T02:53:19.950Z,93.32
2022-12-23T02:53:57.811Z,93.48
2022-12-23T02:54:41.127Z,93.31
2022-12-23T02:55:24.570Z,93.15
2022-12-23T02:56:01.356Z,93.09
2022-12-23T02:56:37.581Z,93.16
2022-12-23T02:57:13.310Z,93.34
2022-12-23T02:57:50.234Z,93.33
2022-12-23T02:58:29.433Z,93.26
2022-12-23T02:59:13.599Z,93.00
2022-12-23T02:59:51.395Z,93.13
2022-12-23T03:00:24.856Z,92.93
2022-12-23T03:01:00.890Z,93.07
2022-12-23T03:01:36.011Z,92.92
2022-12-23T03:02:10.048Z,92.84
2022-12-23T03:02:45.445Z,92.84
2022-12-23T03:03:22.326Z,92.93
2022-12-23T03:03:55.945Z,92.86
2022-12-23T03:04:29.311Z,92.95
2022-12-23T03:05:02.656Z,92.80
2022-12-23T03:05:45.387Z,92.93
2022-12-23T03:06:27.361Z,92.69
2022-12-23T03:07:07.352Z,92.89
2022-12-23T03:07:43.809Z,92.72
2022-12-23T03:08:30.645Z,92.80
2022-12-23T03:09:04.494Z,92.77
2022-12-23T03:09:55.700Z,92.86
2022-12-23T03:10:36.756Z,92.66
2022-12-23T03:11:16.904Z,92.97
2022-12-23T03:11:54.226Z,93.07
2022-12-23T03:12:55.138Z,93.17
2022-12-23T03:13:43.331Z,93.17
2022-12-23T03:14:49.648Z,93.29
2022-12-23T03:15:52.297Z,93.36
2022-12-23T03:16:46.932Z,93.35
2022-12-23T03:17:39.095Z,93.41
2022-12-23T03:18:22.120Z,93.59
2022-12-23T03:19:04.302Z,93.34
2022-12-23T03:19:50.352Z,93.03
2022-12-23T03:20:54.550Z,93.25
2022-12-23T03:21:30.798Z,92.86
2022-12-23T03:22:41.920Z,92.81
2022-12-23T03:23:21.152Z,93.21
2022-12-23T03:24:03.734Z,93.02
2022-12-23T03:24:55.507Z,93.12
2022-12-23T03:25:50.459Z,93.20
2022-12-23T03:26:34.309Z,93.26
2022-12-23T03:27:31.478Z,92.88
2022-12-23T03:28:17.763Z,92.79
2022-12-23T03:29:03.397Z,92.90
2022-12-23T03:29:51.875Z,93.09
2022-12-23T03:30:26.397Z,93.06
2022-12-23T03:31:02.031Z,93.11
2022-12-23T03:31:36.848Z,93.34
2022-12-23T03:32:14.457Z,93.47
2022-12-23T03:32:52.942Z,93.51
2022-12-23T03:33:28.690Z,93.47
2022-12-23T03:34:12.040Z,93.38
2022-12-23T03:34:50.405Z,93.09
2022-12-23T03:35:34.217Z,93.13
2022-12-23T03:36:13.639Z,93.09
2022-12-23T03:36:53.486Z,93.41
2022-12-23T03:37:32.109Z,93.50
2022-12-23T03:38:07.974Z,93.59
2022-12-23T03:38:44.165Z,93.66
2022-12-23T03:39:21.970Z,93.39
2022-12-23T03:40:03.754Z,93.36
2022-12-23T03:40:45.085Z,93.34
2022-12-23T03:41:25.489Z,93.42
2022-12-23T03:42:06.585Z,93.71
2022-12-23T03:42:42.078Z,93.59
2022-12-23T03:43:27.583Z,93.67
2022-12-23T03:44:13.693Z,93.74
2022-12-23T03:45:19.241Z,93.69
2022-12-23T03:45:49.124Z,93.99
2022-12-23T03:46:54.589Z,94.08
2022-12-23T03:47:32.453Z,94.10
2022-12-23T03:48:11.446Z,94.06
2022-12-23T03:49:01.476Z,94.07
2022-12-23T03:49:44.032Z,94.23
2022-12-23T03:50:20.934Z,94.35
2022-12-23T03:50:58.724Z,94.28
2022-12-23T03:51:48.041Z,94.32
2022-12-23T03:52:28.655Z,94.84
2022-12-23T03:53:14.319Z,94.59
2022-12-23T03:53:55.031Z,94.21
2022-12-23T03:54:35.273Z,94.35
2022-12-23T03:55:15.411Z,94.50
2022-12-23T03:55:56.914Z,94.36
2022-12-23T03:56:39.624Z,94.30
2022-12-23T03:57:14.167Z,94.61
2022-12-23T03:58:09.734Z,94.72
2022-12-23T03:58:49.691Z,94.76
2022-12-23T03:59:34.556Z,95.24
2022-12-23T04:00:08.829Z,94.67
2022-12-23T04:00:50.836Z,94.67
2022-12-23T04:02:12.290Z,94.73
2022-12-23T04:02:45.909Z,94.79
2022-12-23T04:03:31.679Z,94.88
2022-12-23T04:04:24.802Z,94.97
2022-12-23T04:05:22.757Z,94.95
2022-12-23T04:06:00.716Z,94.91
2022-12-23T04:06:42.616Z,95.00
2022-12-23T04:07:22.524Z,95.05
2022-12-23T04:08:20.804Z,95.21
2022-12-23T04:08:55.047Z,95.05
2022-12-23T04:09:29.364Z,95.07
2022-12-23T04:10:04.566Z,95.12
2022-12-23T04:10:38.131Z,94.84
2022-12-23T04:11:12.269Z,94.86
2022-12-23T04:11:45.879Z,94.85
2022-12-23T04:12:20.991Z,94.71
2022-12-23T04:12:55.380Z,94.74
2022-12-23T04:13:30.378Z,94.23
2022-12-23T04:14:03.852Z,94.56
2022-12-23T04:14:38.470Z,94.61
2022-12-23T04:15:13.250Z,94.70
2022-12-23T04:15:47.120Z,94.90
2022-12-23T04:16:20.762Z,94.89
2022-12-23T04:16:57.409Z,94.88
2022-12-23T04:17:30.859Z,94.94
2022-12-23T04:18:04.466Z,95.10
2022-12-23T04:18:40.018Z,94.57
2022-12-23T04:19:13.738Z,94.64
2022-12-23T04:19:47.667Z,94.97
2022-12-23T04:20:21.528Z,94.65
2022-12-23T04:20:55.070Z,94.67
2022-12-23T04:21:28.533Z,94.83
2022-12-23T04:22:02.015Z,95.08
2022-12-23T04:22:35.571Z,95.16
2022-12-23T04:23:09.024Z,95.23
2022-12-23T04:23:42.632Z,95.25
2022-12-23T04:24:16.314Z,95.16
2022-12-23T04:24:49.671Z,94.96
2022-12-23T04:25:23.084Z,94.56
2022-12-23T04:25:56.538Z,93.87
2022-12-23T04:26:30.122Z,94.19
2022-12-23T04:27:03.647Z,94.50
2022-12-23T04:27:41.486Z,94.74
2022-12-23T04:28:15.000Z,94.91
2022-12-23T04:28:48.461Z,95.16
2022-12-23T04:29:21.839Z,95.14
2022-12-23T04:29:55.391Z,95.09
2022-12-23T04:30:33.878Z,94.93
2022-12-23T04:31:08.135Z,94.72
2022-12-23T04:31:41.722Z,94.87
2022-12-23T04:32:16.123Z,94.77
2022-12-23T04:32:49.519Z,94.52
2022-12-23T04:33:23.115Z,94.24
2022-12-23T04:33:57.067Z,94.41
2022-12-23T04:34:30.459Z,93.95
2022-12-23T04:35:04.431Z,93.46
2022-12-23T04:35:38.070Z,93.29
2022-12-23T04:36:11.726Z,93.20
2022-12-23T04:36:45.126Z,93.23
2022-12-23T04:37:18.574Z,93.36
2022-12-23T04:37:51.998Z,93.16
2022-12-23T04:38:25.346Z,93.46
2022-12-23T04:38:58.787Z,93.66
2022-12-23T04:39:32.329Z,93.77
2022-12-23T04:40:06.735Z,93.99
2022-12-23T04:40:40.402Z,94.04
2022-12-23T04:41:13.802Z,94.10
2022-12-23T04:41:47.358Z,94.28
2022-12-23T04:42:24.357Z,94.23
2022-12-23T04:42:57.943Z,94.12
2022-12-23T04:43:33.964Z,93.97
2022-12-23T04:44:07.504Z,94.00
2022-12-23T04:44:41.248Z,94.08
2022-12-23T04:45:15.324Z,93.89
2022-12-23T04:45:52.223Z,93.78
2022-12-23T04:46:25.715Z,93.36
2022-12-23T04:46:59.599Z,93.12
2022-12-23T04:47:33.116Z,92.99
2022-12-23T04:48:06.685Z,92.86
2022-12-23T04:48:40.045Z,92.88
2022-12-23T04:49:13.501Z,92.72
2022-12-23T04:49:46.949Z,92.66
2022-12-23T04:50:20.400Z,92.82
2022-12-23T04:50:53.766Z,92.79
2022-12-23T04:51:27.418Z,92.84
2022-12-23T04:52:00.911Z,92.89
2022-12-23T04:52:34.317Z,93.09
2022-12-23T04:53:07.776Z,93.34
2022-12-23T04:53:41.356Z,93.35
2022-12-23T04:54:14.772Z,93.25
2022-12-23T04:54:48.348Z,93.47
2022-12-23T04:55:21.850Z,93.45
2022-12-23T04:55:55.318Z,93.54
2022-12-23T04:56:28.741Z,93.42
2022-12-23T04:57:02.389Z,93.30
2022-12-23T04:57:36.043Z,93.22
2022-12-23T04:58:09.652Z,93.33
2022-12-23T04:58:43.324Z,93.31
2022-12-23T04:59:16.878Z,93.25
2022-12-23T04:59:50.336Z,93.44
2022-12-23T05:00:23.847Z,93.59
2022-12-23T05:01:05.781Z,93.58
2022-12-23T05:01:39.679Z,93.68
2022-12-23T05:02:14.087Z,93.65
2022-12-23T05:02:47.865Z,93.57
2022-12-23T05:03:21.638Z,93.52
2022-12-23T05:03:55.155Z,93.48
2022-12-23T05:04:28.659Z,93.46
2022-12-23T05:05:02.139Z,93.53
2022-12-23T05:05:35.584Z,93.45
2022-12-23T05:06:09.463Z,93.28
2022-12-23T05:06:42.966Z,93.38
2022-12-23T05:07:16.463Z,93.24
2022-12-23T05:07:50.725Z,93.30
2022-12-23T05:08:24.170Z,93.28
2022-12-23T05:08:57.506Z,93.32
2022-12-23T05:09:31.022Z,92.88
2022-12-23T05:10:04.641Z,92.84
2022-12-23T05:10:38.301Z,93.03
2022-12-23T05:11:11.749Z,93.19
2022-12-23T05:11:45.191Z,93.33
2022-12-23T05:12:18.694Z,93.21
2022-12-23T05:12:52.142Z,93.11
2022-12-23T05:13:25.616Z,93.16
2022-12-23T05:13:59.056Z,93.00
2022-12-23T05:14:32.446Z,93.03
2022-12-23T05:15:06.523Z,93.00
2022-12-23T05:15:39.976Z,92.93
2022-12-23T05:16:13.619Z,92.93
2022-12-23T05:16:47.278Z,92.96
2022-12-23T05:17:20.773Z,92.77
2022-12-23T05:17:54.345Z,92.88
2022-12-23T05:18:27.793Z,93.03
2022-12-23T05:19:01.344Z,93.25
2022-12-23T05:19:34.949Z,93.40
2022-12-23T05:20:09.140Z,93.35
2022-12-23T05:20:42.827Z,93.35
2022-12-23T05:21:16.458Z,93.38
2022-12-23T05:21:49.924Z,93.22
2022-12-23T05:22:23.447Z,93.18
2022-12-23T05:22:56.859Z,93.19
2022-12-23T05:23:30.371Z,93.09
2022-12-23T05:24:04.130Z,93.07
2022-12-23T05:24:37.592Z,93.02
2022-12-23T05:25:12.324Z,92.90
2022-12-23T05:25:51.925Z,92.84
2022-12-23T05:26:25.439Z,92.87
2022-12-23T05:27:00.336Z,92.99
2022-12-23T05:27:36.070Z,92.82
2022-12-23T05:28:09.938Z,92.75
2022-12-23T05:28:45.733Z,92.87
2022-12-23T05:29:19.203Z,92.76
2022-12-23T05:29:52.788Z,92.46
2022-12-23T05:30:26.406Z,92.69
2022-12-23T05:31:02.534Z,92.66
2022-12-23T05:31:36.140Z,92.84
2022-12-23T05:32:10.250Z,93.01
2022-12-23T05:32:43.713Z,93.00
2022-12-23T05:33:17.135Z,92.86
2022-12-23T05:33:52.719Z,92.72
2022-12-23T05:34:26.359Z,92.50
2022-12-23T05:34:59.847Z,92.71
2022-12-23T05:35:33.444Z,93.09
2022-12-23T05:36:07.841Z,93.17
2022-12-23T05:36:41.713Z,93.23
2022-12-23T05:37:15.173Z,93.31
2022-12-23T05:37:48.672Z,93.45
2022-12-23T05:38:22.294Z,93.69
2022-12-23T05:38:57.606Z,93.71
2022-12-23T05:39:31.184Z,93.86
2022-12-23T05:40:05.189Z,94.00
2022-12-23T05:40:38.669Z,94.14
2022-12-23T05:41:12.245Z,93.93
2022-12-23T05:41:46.129Z,93.65
2022-12-23T05:42:19.761Z,93.41
2022-12-23T05:42:53.187Z,93.45
2022-12-23T05:43:26.668Z,93.49
2022-12-23T05:44:00.204Z,93.94
2022-12-23T05:44:33.647Z,94.01
2022-12-23T05:45:07.710Z,94.07
2022-12-23T05:45:41.652Z,94.07
2022-12-23T05:46:15.142Z,94.26
2022-12-23T05:46:48.547Z,94.16
2022-12-23T05:47:22.025Z,94.25
2022-12-23T05:47:55.417Z,94.17
2022-12-23T05:48:28.764Z,93.99
2022-12-23T05:49:02.283Z,93.90
2022-12-23T05:49:35.689Z,93.78
2022-12-23T05:50:09.984Z,93.96
2022-12-23T05:50:43.960Z,93.92
2022-12-23T05:51:17.663Z,93.84
2022-12-23T05:51:51.094Z,94.01
2022-12-23T05:52:24.503Z,93.89
2022-12-23T05:52:58.085Z,93.20
2022-12-23T05:53:31.723Z,93.38
2022-12-23T05:54:05.194Z,93.51
2022-12-23T05:54:38.803Z,93.66
2022-12-23T05:55:12.168Z,93.50
2022-12-23T05:55:45.622Z,93.22
2022-12-23T05:56:19.050Z,93.31
2022-12-23T05:56:55.474Z,93.54
2022-12-23T05:57:28.934Z,93.53
2022-12-23T05:58:02.957Z,93.79
2022-12-23T05:58:36.548Z,93.87
2022-12-23T05:59:10.210Z,93.92
2022-12-23T05:59:43.903Z,94.07
2022-12-23T06:00:18.526Z,94.11
2022-12-23T06:00:52.048Z,94.25
2022-12-23T06:01:25.555Z,94.24
2022-12-23T06:02:00.066Z,94.23
2022-12-23T06:02:34.048Z,94.27
2022-12-23T06:03:08.004Z,94.10
2022-12-23T06:03:41.829Z,94.32
2022-12-23T06:04:15.534Z,94.42
2022-12-23T06:04:50.014Z,94.42
2022-12-23T06:05:23.560Z,94.54
2022-12-23T06:05:57.087Z,94.57
2022-12-23T06:06:30.611Z,94.51
2022-12-23T06:07:04.245Z,94.53
2022-12-23T06:07:39.286Z,94.34
2022-12-23T06:08:12.891Z,94.52
2022-12-23T06:08:46.475Z,94.53
2022-12-23T06:09:19.995Z,94.13
2022-12-23T06:09:53.583Z,93.60
2022-12-23T06:10:26.974Z,93.71
2022-12-23T06:11:00.464Z,93.93
2022-12-23T06:11:33.817Z,94.08
2022-12-23T06:12:07.453Z,94.17
2022-12-23T06:12:40.900Z,94.13
2022-12-23T06:13:14.376Z,93.56
2022-12-23T06:13:47.885Z,93.02
2022-12-23T06:14:28.854Z,93.08
2022-12-23T06:15:03.495Z,93.22
2022-12-23T06:15:37.177Z,93.49
2022-12-23T06:16:10.867Z,93.72
2022-12-23T06:16:44.524Z,93.60
2022-12-23T06:17:17.962Z,93.73
2022-12-23T06:17:51.861Z,93.71
2022-12-23T06:18:25.521Z,93.89
2022-12-23T06:18:59.209Z,93.97
2022-12-23T06:19:32.891Z,93.94
2022-12-23T06:20:07.171Z,93.81
2022-12-23T06:20:41.040Z,93.64
2022-12-23T06:21:14.569Z,93.50
2022-12-23T06:21:48.199Z,93.45
2022-12-23T06:22:22.023Z,93.27
2022-12-23T06:22:55.433Z,93.27
2022-12-23T06:23:28.779Z,93.43
2022-12-23T06:24:02.397Z,93.54
2022-12-23T06:24:36.608Z,93.57
2022-12-23T06:25:10.341Z,93.37
2022-12-23T06:25:43.865Z,93.38
2022-12-23T06:26:18.780Z,93.34
2022-12-23T06:26:57.020Z,93.36
2022-12-23T06:27:31.121Z,93.30
2022-12-23T06:28:05.480Z,93.52
2022-12-23T06:28:38.899Z,93.62
2022-12-23T06:29:12.558Z,93.68
2022-12-23T06:29:46.345Z,93.76
2022-12-23T06:30:19.832Z,93.72
2022-12-23T06:30:55.102Z,93.64
2022-12-23T06:31:28.835Z,93.44
2022-12-23T06:32:02.588Z,93.46
2022-12-23T06:32:38.564Z,93.31
2022-12-23T06:33:12.713Z,93.33
2022-12-23T06:34:00.543Z,93.48
2022-12-23T06:34:34.211Z,93.31
2022-12-23T06:35:09.070Z,93.33
2022-12-23T06:35:43.464Z,93.53
2022-12-23T06:36:16.887Z,93.47
2022-12-23T06:36:50.357Z,93.39
2022-12-23T06:37:23.825Z,93.18
2022-12-23T06:37:57.209Z,92.75
2022-12-23T06:38:30.549Z,92.77
2022-12-23T06:39:04.054Z,92.72
2022-12-23T06:39:37.441Z,92.68
2022-12-23T06:40:11.586Z,92.74
2022-12-23T06:40:45.213Z,93.05
2022-12-23T06:41:18.939Z,92.85
2022-12-23T06:41:52.365Z,93.10
2022-12-23T06:42:25.767Z,93.03
2022-12-23T06:42:59.322Z,93.15
2022-12-23T06:43:32.721Z,93.15
2022-12-23T06:44:06.255Z,93.12
2022-12-23T06:44:39.739Z,93.05
2022-12-23T06:45:13.837Z,93.21
2022-12-23T06:45:49.358Z,93.15
2022-12-23T06:46:23.086Z,93.07
2022-12-23T06:46:56.542Z,93.00
2022-12-23T06:47:31.426Z,92.89
2022-12-23T06:48:05.590Z,92.73
2022-12-23T06:48:38.991Z,92.68
2022-12-23T06:49:14.168Z,92.91
2022-12-23T06:49:47.977Z,92.83
2022-12-23T06:50:22.559Z,92.64
2022-12-23T06:50:56.021Z,92.69
2022-12-23T06:51:29.559Z,92.84
2022-12-23T06:52:03.039Z,92.78
2022-12-23T06:52:36.545Z,92.99
2022-12-23T06:53:10.515Z,93.10
2022-12-23T06:53:44.444Z,93.03
2022-12-23T06:54:17.865Z,93.13
2022-12-23T06:54:51.369Z,93.30
2022-12-23T06:55:24.746Z,93.32
2022-12-23T06:56:04.859Z,93.41
2022-12-23T06:56:39.031Z,93.34
2022-12-23T06:57:13.147Z,93.40
2022-12-23T06:57:46.735Z,93.26
2022-12-23T06:58:20.356Z,93.05
2022-12-23T06:58:53.844Z,93.06
2022-12-23T06:59:28.180Z,92.93
2022-12-23T07:00:01.834Z,92.77
2022-12-23T07:00:35.390Z,92.82
2022-12-23T07:01:10.195Z,93.04
2022-12-23T07:01:43.999Z,92.99
2022-12-23T07:02:20.836Z,92.79
2022-12-23T07:02:54.944Z,92.39
2022-12-23T07:03:28.726Z,92.49
2022-12-23T07:04:03.266Z,92.95
2022-12-23T07:04:36.775Z,93.07
2022-12-23T07:05:11.019Z,93.22
2022-12-23T07:05:48.335Z,93.30
2022-12-23T07:06:21.905Z,93.62
2022-12-23T07:06:55.161Z,93.12
2022-12-23T07:07:28.846Z,93.00
2022-12-23T07:08:03.507Z,92.87
2022-12-23T07:08:45.814Z,93.12
2022-12-23T07:09:26.996Z,93.40
2022-12-23T07:10:00.794Z,93.65
2022-12-23T07:10:35.693Z,93.76
2022-12-23T07:11:09.326Z,93.95
2022-12-23T07:11:42.806Z,94.04
2022-12-23T07:12:16.292Z,94.25
2022-12-23T07:12:51.005Z,94.15
2022-12-23T07:13:24.886Z,93.95
2022-12-23T07:13:59.723Z,94.12
2022-12-23T07:14:33.190Z,94.39
2022-12-23T07:15:07.427Z,94.34
2022-12-23T07:15:41.151Z,94.36
2022-12-23T07:16:14.686Z,94.27
2022-12-23T07:16:48.597Z,94.42
2022-12-23T07:17:22.038Z,94.26
2022-12-23T07:17:55.881Z,94.63
2022-12-23T07:18:30.015Z,94.64
2022-12-23T07:19:04.451Z,94.64
2022-12-23T07:19:40.594Z,94.79
2022-12-23T07:20:14.597Z,94.82
2022-12-23T07:20:48.187Z,94.91
2022-12-23T07:21:29.847Z,94.97
2022-12-23T07:22:03.770Z,95.00
2022-12-23T07:22:37.349Z,94.86
2022-12-23T07:23:10.849Z,94.82
2022-12-23T07:23:44.520Z,94.85
2022-12-23T07:24:17.972Z,94.98
2022-12-23T07:24:51.885Z,94.46
2022-12-23T07:25:28.920Z,94.55
2022-12-23T07:26:02.549Z,94.32
2022-12-23T07:26:36.123Z,94.26
2022-12-23T07:27:09.818Z,94.09
2022-12-23T07:27:46.309Z,93.78
2022-12-23T07:28:19.889Z,93.97
2022-12-23T07:28:53.511Z,94.47
2022-12-23T07:29:26.975Z,94.75
2022-12-23T07:30:00.426Z,94.93
2022-12-23T07:30:33.977Z,95.11
2022-12-23T07:31:08.409Z,95.18
2022-12-23T07:31:42.333Z,94.97
2022-12-23T07:32:15.864Z,94.98
2022-12-23T07:32:53.276Z,94.32
2022-12-23T07:33:27.239Z,94.40
2022-12-23T07:34:00.818Z,94.55
2022-12-23T07:34:35.131Z,94.69
2022-12-23T07:35:09.572Z,94.47
2022-12-23T07:35:43.198Z,94.56
2022-12-23T07:36:16.738Z,94.73
2022-12-23T07:36:50.247Z,95.03
2022-12-23T07:37:23.656Z,95.20
2022-12-23T07:37:59.280Z,95.37
2022-12-23T07:38:32.771Z,95.35
2022-12-23T07:39:06.726Z,95.19
2022-12-23T07:39:40.408Z,94.85
2022-12-23T07:40:14.108Z,94.73
2022-12-23T07:40:49.627Z,94.99
2022-12-23T07:41:23.055Z,94.75
2022-12-23T07:42:16.691Z,95.07
2022-12-23T07:42:53.928Z,95.32
2022-12-23T07:43:27.646Z,95.53
2022-12-23T07:44:01.301Z,95.43
2022-12-23T07:44:34.803Z,95.48
2022-12-23T07:45:08.483Z,95.58
2022-12-23T07:45:42.122Z,95.67
2022-12-23T07:46:15.651Z,95.62
2022-12-23T07:46:49.465Z,95.68
2022-12-23T07:47:23.735Z,95.68
2022-12-23T07:48:01.197Z,95.71
2022-12-23T07:48:34.934Z,95.73
2022-12-23T07:49:08.505Z,95.73
2022-12-23T07:49:42.043Z,95.70
2022-12-23T07:50:15.633Z,95.77
2022-12-23T07:50:49.054Z,95.87
2022-12-23T07:51:22.354Z,95.86
2022-12-23T07:51:55.848Z,95.93
2022-12-23T07:52:30.301Z,95.97
2022-12-23T07:53:04.025Z,95.92
2022-12-23T07:53:37.706Z,95.91
2022-12-23T07:54:14.019Z,95.88
2022-12-23T07:54:47.440Z,95.96
2022-12-23T07:55:21.843Z,95.99
2022-12-23T07:55:56.852Z,95.87
2022-12-23T07:56:30.684Z,95.95
2022-12-23T07:57:04.298Z,95.92
2022-12-23T07:57:38.560Z,95.94
2022-12-23T07:58:13.924Z,95.79
2022-12-23T07:58:52.522Z,95.68
2022-12-23T07:59:27.456Z,95.54
2022-12-23T08:00:01.033Z,95.58
2022-12-23T08:00:35.479Z,95.49
2022-12-23T08:01:09.224Z,95.77
2022-12-23T08:01:42.919Z,95.71
2022-12-23T08:02:16.490Z,95.57
2022-12-23T08:02:50.158Z,95.50
2022-12-23T08:03:23.822Z,95.57
2022-12-23T08:03:57.420Z,95.66